sensor_id;sensor_type;location;lat;lon;timestamp;P1;durP1;ratioP1;P2;durP2;ratioP2
40871;SDS011;26591;43.264;26.940;2024-03-02T00:00:08;34.08;;;14.43;;
40871;SDS011;26591;43.264;26.940;2024-03-02T00:02:42;25.63;;;10.48;;
40871;SDS011;26591;43.264;26.940;2024-03-02T00:05:14;22.90;;;11.27;;
40871;SDS011;26591;43.264;26.940;2024-03-02T00:07:42;32.20;;;12.57;;
40871;SDS011;26591;43.264;26.940;2024-03-02T00:10:09;33.33;;;12.57;;
40871;SDS011;26591;43.264;26.940;2024-03-02T00:12:37;26.30;;;12.65;;
40871;SDS011;26591;43.264;26.940;2024-03-02T00:18:13;37.10;;;13.93;;
40871;SDS011;26591;43.264;26.940;2024-03-02T00:20:43;32.10;;;12.80;;
40871;SDS011;26591;43.264;26.940;2024-03-02T00:23:09;36.33;;;13.70;;
40871;SDS011;26591;43.264;26.940;2024-03-02T00:25:43;33.53;;;12.98;;
40871;SDS011;26591;43.264;26.940;2024-03-02T00:28:14;29.35;;;12.43;;
40871;SDS011;26591;43.264;26.940;2024-03-02T00:33:46;38.65;;;13.43;;
40871;SDS011;26591;43.264;26.940;2024-03-02T00:36:16;42.65;;;16.45;;
40871;SDS011;26591;43.264;26.940;2024-03-02T00:39:01;37.55;;;14.75;;
40871;SDS011;26591;43.264;26.940;2024-03-02T00:49:03;36.92;;;14.13;;
40871;SDS011;26591;43.264;26.940;2024-03-02T00:51:31;31.75;;;12.95;;
40871;SDS011;26591;43.264;26.940;2024-03-02T00:54:01;31.15;;;15.20;;
40871;SDS011;26591;43.264;26.940;2024-03-02T00:56:29;36.65;;;17.15;;
40871;SDS011;26591;43.264;26.940;2024-03-02T00:58:55;33.25;;;15.05;;
40871;SDS011;26591;43.264;26.940;2024-03-02T01:01:21;36.80;;;16.42;;
40871;SDS011;26591;43.264;26.940;2024-03-02T01:03:47;34.28;;;16.10;;
40871;SDS011;26591;43.264;26.940;2024-03-02T01:06:14;38.50;;;16.17;;
40871;SDS011;26591;43.264;26.940;2024-03-02T01:08:40;34.47;;;15.82;;
40871;SDS011;26591;43.264;26.940;2024-03-02T01:11:06;34.28;;;16.50;;
40871;SDS011;26591;43.264;26.940;2024-03-02T01:13:34;42.70;;;16.40;;
40871;SDS011;26591;43.264;26.940;2024-03-02T01:15:59;40.33;;;18.20;;
40871;SDS011;26591;43.264;26.940;2024-03-02T01:18:30;38.90;;;17.13;;
40871;SDS011;26591;43.264;26.940;2024-03-02T01:20:56;31.77;;;15.93;;
40871;SDS011;26591;43.264;26.940;2024-03-02T01:23:22;33.58;;;15.95;;
40871;SDS011;26591;43.264;26.940;2024-03-02T01:25:48;35.97;;;17.45;;
40871;SDS011;26591;43.264;26.940;2024-03-02T01:28:14;46.08;;;17.27;;
40871;SDS011;26591;43.264;26.940;2024-03-02T01:30:39;41.78;;;17.77;;
40871;SDS011;26591;43.264;26.940;2024-03-02T01:33:05;34.92;;;16.63;;
40871;SDS011;26591;43.264;26.940;2024-03-02T01:35:31;32.75;;;15.48;;
40871;SDS011;26591;43.264;26.940;2024-03-02T01:40:43;34.63;;;15.80;;
40871;SDS011;26591;43.264;26.940;2024-03-02T01:43:11;40.80;;;15.45;;
40871;SDS011;26591;43.264;26.940;2024-03-02T01:45:37;40.28;;;16.88;;
40871;SDS011;26591;43.264;26.940;2024-03-02T01:48:04;33.20;;;16.05;;
40871;SDS011;26591;43.264;26.940;2024-03-02T01:50:33;33.63;;;12.80;;
40871;SDS011;26591;43.264;26.940;2024-03-02T01:53:00;39.28;;;14.52;;
40871;SDS011;26591;43.264;26.940;2024-03-02T01:55:26;34.50;;;14.43;;
40871;SDS011;26591;43.264;26.940;2024-03-02T01:57:55;37.08;;;14.20;;
40871;SDS011;26591;43.264;26.940;2024-03-02T02:00:21;35.88;;;13.68;;
40871;SDS011;26591;43.264;26.940;2024-03-02T02:02:50;33.08;;;13.32;;
40871;SDS011;26591;43.264;26.940;2024-03-02T02:05:16;33.50;;;12.68;;
40871;SDS011;26591;43.264;26.940;2024-03-02T02:07:42;35.60;;;13.63;;
40871;SDS011;26591;43.264;26.940;2024-03-02T02:10:08;37.70;;;12.75;;
40871;SDS011;26591;43.264;26.940;2024-03-02T02:12:35;34.92;;;13.52;;
40871;SDS011;26591;43.264;26.940;2024-03-02T02:15:01;40.00;;;14.45;;
40871;SDS011;26591;43.264;26.940;2024-03-02T02:17:27;38.40;;;13.80;;
40871;SDS011;26591;43.264;26.940;2024-03-02T02:19:53;34.30;;;14.75;;
40871;SDS011;26591;43.264;26.940;2024-03-02T02:22:18;30.33;;;13.20;;
40871;SDS011;26591;43.264;26.940;2024-03-02T02:24:44;30.23;;;13.02;;
40871;SDS011;26591;43.264;26.940;2024-03-02T02:27:10;32.55;;;12.75;;
40871;SDS011;26591;43.264;26.940;2024-03-02T02:29:35;35.45;;;13.57;;
40871;SDS011;26591;43.264;26.940;2024-03-02T02:32:01;37.05;;;12.35;;
40871;SDS011;26591;43.264;26.940;2024-03-02T02:34:27;29.95;;;11.90;;
40871;SDS011;26591;43.264;26.940;2024-03-02T02:36:53;25.10;;;11.45;;
40871;SDS011;26591;43.264;26.940;2024-03-02T02:39:20;36.80;;;13.95;;
40871;SDS011;26591;43.264;26.940;2024-03-02T02:41:47;31.65;;;12.00;;
40871;SDS011;26591;43.264;26.940;2024-03-02T02:44:13;32.67;;;12.85;;
40871;SDS011;26591;43.264;26.940;2024-03-02T02:46:39;31.55;;;13.57;;
40871;SDS011;26591;43.264;26.940;2024-03-02T02:49:05;35.45;;;13.13;;
40871;SDS011;26591;43.264;26.940;2024-03-02T02:51:31;37.80;;;13.50;;
40871;SDS011;26591;43.264;26.940;2024-03-02T02:53:57;35.83;;;14.77;;
40871;SDS011;26591;43.264;26.940;2024-03-02T02:56:22;28.17;;;15.23;;
40871;SDS011;26591;43.264;26.940;2024-03-02T02:58:48;42.10;;;19.30;;
40871;SDS011;26591;43.264;26.940;2024-03-02T03:01:14;50.70;;;20.30;;
40871;SDS011;26591;43.264;26.940;2024-03-02T03:03:42;34.28;;;17.00;;
40871;SDS011;26591;43.264;26.940;2024-03-02T03:06:08;32.05;;;17.83;;
40871;SDS011;26591;43.264;26.940;2024-03-02T03:08:34;43.50;;;19.80;;
40871;SDS011;26591;43.264;26.940;2024-03-02T03:10:59;39.70;;;18.85;;
40871;SDS011;26591;43.264;26.940;2024-03-02T03:13:25;45.28;;;19.30;;
40871;SDS011;26591;43.264;26.940;2024-03-02T03:15:50;43.40;;;17.83;;
40871;SDS011;26591;43.264;26.940;2024-03-02T03:18:16;37.90;;;16.75;;
40871;SDS011;26591;43.264;26.940;2024-03-02T03:20:41;40.20;;;15.68;;
40871;SDS011;26591;43.264;26.940;2024-03-02T03:23:07;35.70;;;15.13;;
40871;SDS011;26591;43.264;26.940;2024-03-02T03:25:33;39.42;;;15.77;;
40871;SDS011;26591;43.264;26.940;2024-03-02T03:27:59;39.53;;;15.50;;
40871;SDS011;26591;43.264;26.940;2024-03-02T03:33:37;36.00;;;14.60;;
40871;SDS011;26591;43.264;26.940;2024-03-02T03:36:02;37.47;;;15.60;;
40871;SDS011;26591;43.264;26.940;2024-03-02T03:38:28;35.45;;;15.00;;
40871;SDS011;26591;43.264;26.940;2024-03-02T03:40:56;28.27;;;14.07;;
40871;SDS011;26591;43.264;26.940;2024-03-02T03:43:22;27.98;;;12.27;;
40871;SDS011;26591;43.264;26.940;2024-03-02T03:45:47;26.13;;;13.63;;
40871;SDS011;26591;43.264;26.940;2024-03-02T03:48:13;39.58;;;12.85;;
40871;SDS011;26591;43.264;26.940;2024-03-02T03:50:38;37.83;;;13.13;;
40871;SDS011;26591;43.264;26.940;2024-03-02T03:53:04;30.60;;;12.35;;
40871;SDS011;26591;43.264;26.940;2024-03-02T03:55:29;33.83;;;11.82;;
40871;SDS011;26591;43.264;26.940;2024-03-02T03:57:55;30.50;;;11.68;;
40871;SDS011;26591;43.264;26.940;2024-03-02T04:00:20;35.20;;;12.18;;
40871;SDS011;26591;43.264;26.940;2024-03-02T04:02:45;26.20;;;10.32;;
40871;SDS011;26591;43.264;26.940;2024-03-02T04:05:11;27.52;;;11.73;;
40871;SDS011;26591;43.264;26.940;2024-03-02T04:07:37;30.70;;;12.50;;
40871;SDS011;26591;43.264;26.940;2024-03-02T04:10:06;38.50;;;12.82;;
40871;SDS011;26591;43.264;26.940;2024-03-02T04:12:33;37.17;;;13.23;;
40871;SDS011;26591;43.264;26.940;2024-03-02T04:15:00;29.90;;;12.60;;
40871;SDS011;26591;43.264;26.940;2024-03-02T04:17:27;37.53;;;14.07;;
40871;SDS011;26591;43.264;26.940;2024-03-02T04:19:52;29.13;;;12.45;;
40871;SDS011;26591;43.264;26.940;2024-03-02T04:22:17;30.55;;;14.23;;
40871;SDS011;26591;43.264;26.940;2024-03-02T04:24:43;31.20;;;13.35;;
40871;SDS011;26591;43.264;26.940;2024-03-02T04:27:08;31.95;;;15.27;;
40871;SDS011;26591;43.264;26.940;2024-03-02T04:29:34;32.35;;;14.27;;
40871;SDS011;26591;43.264;26.940;2024-03-02T04:31:59;32.28;;;13.10;;
40871;SDS011;26591;43.264;26.940;2024-03-02T04:34:25;31.08;;;14.20;;
40871;SDS011;26591;43.264;26.940;2024-03-02T04:36:50;37.50;;;15.02;;
40871;SDS011;26591;43.264;26.940;2024-03-02T04:39:27;30.39;;;12.32;;
40871;SDS011;26591;43.264;26.940;2024-03-02T04:41:53;34.20;;;14.40;;
40871;SDS011;26591;43.264;26.940;2024-03-02T04:44:19;37.05;;;16.77;;
40871;SDS011;26591;43.264;26.940;2024-03-02T04:46:44;35.45;;;15.30;;
40871;SDS011;26591;43.264;26.940;2024-03-02T04:49:22;38.85;;;16.73;;
40871;SDS011;26591;43.264;26.940;2024-03-02T04:51:47;29.65;;;15.43;;
40871;SDS011;26591;43.264;26.940;2024-03-02T04:54:18;33.28;;;17.23;;
40871;SDS011;26591;43.264;26.940;2024-03-02T04:59:09;39.65;;;17.75;;
40871;SDS011;26591;43.264;26.940;2024-03-02T05:01:36;35.88;;;16.95;;
40871;SDS011;26591;43.264;26.940;2024-03-02T05:04:01;36.80;;;19.23;;
40871;SDS011;26591;43.264;26.940;2024-03-02T05:06:27;38.17;;;18.17;;
40871;SDS011;26591;43.264;26.940;2024-03-02T05:08:52;40.00;;;21.05;;
40871;SDS011;26591;43.264;26.940;2024-03-02T05:11:18;52.33;;;20.05;;
40871;SDS011;26591;43.264;26.940;2024-03-02T05:14:02;40.53;;;17.83;;
40871;SDS011;26591;43.264;26.940;2024-03-02T05:16:28;36.25;;;17.83;;
40871;SDS011;26591;43.264;26.940;2024-03-02T05:18:53;42.00;;;17.58;;
40871;SDS011;26591;43.264;26.940;2024-03-02T05:21:19;35.92;;;17.65;;
40871;SDS011;26591;43.264;26.940;2024-03-02T05:23:45;33.30;;;18.75;;
40871;SDS011;26591;43.264;26.940;2024-03-02T05:26:10;35.13;;;17.63;;
40871;SDS011;26591;43.264;26.940;2024-03-02T05:28:38;36.72;;;15.63;;
40871;SDS011;26591;43.264;26.940;2024-03-02T05:31:04;47.22;;;18.77;;
40871;SDS011;26591;43.264;26.940;2024-03-02T05:33:30;43.28;;;17.63;;
40871;SDS011;26591;43.264;26.940;2024-03-02T05:35:57;42.92;;;19.48;;
40871;SDS011;26591;43.264;26.940;2024-03-02T05:38:22;48.05;;;22.63;;
40871;SDS011;26591;43.264;26.940;2024-03-02T05:40:48;42.42;;;25.42;;
40871;SDS011;26591;43.264;26.940;2024-03-02T05:43:13;45.88;;;21.85;;
40871;SDS011;26591;43.264;26.940;2024-03-02T05:45:39;36.38;;;19.10;;
40871;SDS011;26591;43.264;26.940;2024-03-02T05:48:05;39.17;;;16.10;;
40871;SDS011;26591;43.264;26.940;2024-03-02T05:50:34;46.53;;;16.60;;
40871;SDS011;26591;43.264;26.940;2024-03-02T05:53:00;36.70;;;14.63;;
40871;SDS011;26591;43.264;26.940;2024-03-02T05:55:25;33.88;;;14.40;;
40871;SDS011;26591;43.264;26.940;2024-03-02T05:57:51;38.45;;;14.07;;
40871;SDS011;26591;43.264;26.940;2024-03-02T06:02:57;36.38;;;15.07;;
40871;SDS011;26591;43.264;26.940;2024-03-02T06:05:23;34.22;;;16.58;;
40871;SDS011;26591;43.264;26.940;2024-03-02T06:11:01;38.78;;;17.55;;
40871;SDS011;26591;43.264;26.940;2024-03-02T06:13:26;37.55;;;18.30;;
40871;SDS011;26591;43.264;26.940;2024-03-02T06:15:52;40.92;;;16.60;;
40871;SDS011;26591;43.264;26.940;2024-03-02T06:18:18;36.33;;;17.08;;
40871;SDS011;26591;43.264;26.940;2024-03-02T06:20:43;42.80;;;16.90;;
40871;SDS011;26591;43.264;26.940;2024-03-02T06:23:09;44.80;;;18.65;;
40871;SDS011;26591;43.264;26.940;2024-03-02T06:25:34;32.22;;;14.15;;
40871;SDS011;26591;43.264;26.940;2024-03-02T06:28:01;33.08;;;14.70;;
40871;SDS011;26591;43.264;26.940;2024-03-02T06:30:26;28.08;;;11.63;;
40871;SDS011;26591;43.264;26.940;2024-03-02T06:32:52;39.00;;;11.63;;
40871;SDS011;26591;43.264;26.940;2024-03-02T06:35:17;31.92;;;10.75;;
40871;SDS011;26591;43.264;26.940;2024-03-02T06:37:43;28.17;;;11.07;;
40871;SDS011;26591;43.264;26.940;2024-03-02T06:40:08;25.98;;;11.00;;
40871;SDS011;26591;43.264;26.940;2024-03-02T06:42:34;31.27;;;11.35;;
40871;SDS011;26591;43.264;26.940;2024-03-02T06:45:01;23.80;;;11.32;;
40871;SDS011;26591;43.264;26.940;2024-03-02T06:47:27;28.55;;;11.35;;
40871;SDS011;26591;43.264;26.940;2024-03-02T06:49:52;27.30;;;11.43;;
40871;SDS011;26591;43.264;26.940;2024-03-02T06:52:18;26.92;;;12.13;;
40871;SDS011;26591;43.264;26.940;2024-03-02T06:54:45;28.90;;;11.73;;
40871;SDS011;26591;43.264;26.940;2024-03-02T06:57:11;38.75;;;11.55;;
40871;SDS011;26591;43.264;26.940;2024-03-02T06:59:37;30.77;;;13.38;;
40871;SDS011;26591;43.264;26.940;2024-03-02T07:02:02;34.45;;;12.52;;
40871;SDS011;26591;43.264;26.940;2024-03-02T07:04:28;29.77;;;12.65;;
40871;SDS011;26591;43.264;26.940;2024-03-02T07:06:53;24.17;;;12.25;;
40871;SDS011;26591;43.264;26.940;2024-03-02T07:09:20;29.52;;;11.82;;
40871;SDS011;26591;43.264;26.940;2024-03-02T07:11:47;35.60;;;14.60;;
40871;SDS011;26591;43.264;26.940;2024-03-02T07:14:13;35.13;;;12.60;;
40871;SDS011;26591;43.264;26.940;2024-03-02T07:16:39;35.47;;;12.63;;
40871;SDS011;26591;43.264;26.940;2024-03-02T07:19:05;32.95;;;12.93;;
40871;SDS011;26591;43.264;26.940;2024-03-02T07:21:31;29.70;;;13.43;;
40871;SDS011;26591;43.264;26.940;2024-03-02T07:23:58;33.92;;;13.75;;
40871;SDS011;26591;43.264;26.940;2024-03-02T07:26:24;34.78;;;12.25;;
40871;SDS011;26591;43.264;26.940;2024-03-02T07:28:50;27.98;;;12.45;;
40871;SDS011;26591;43.264;26.940;2024-03-02T07:31:16;46.83;;;13.07;;
40871;SDS011;26591;43.264;26.940;2024-03-02T07:33:43;36.47;;;14.88;;
40871;SDS011;26591;43.264;26.940;2024-03-02T07:36:10;41.22;;;18.77;;
40871;SDS011;26591;43.264;26.940;2024-03-02T07:38:35;43.60;;;15.32;;
40871;SDS011;26591;43.264;26.940;2024-03-02T07:41:07;42.85;;;14.27;;
40871;SDS011;26591;43.264;26.940;2024-03-02T07:43:33;28.38;;;12.32;;
40871;SDS011;26591;43.264;26.940;2024-03-02T07:45:59;25.83;;;11.07;;
40871;SDS011;26591;43.264;26.940;2024-03-02T07:48:25;30.17;;;11.63;;
40871;SDS011;26591;43.264;26.940;2024-03-02T07:50:52;30.55;;;10.23;;
40871;SDS011;26591;43.264;26.940;2024-03-02T07:53:17;23.20;;;10.63;;
40871;SDS011;26591;43.264;26.940;2024-03-02T07:55:43;27.23;;;9.35;;
40871;SDS011;26591;43.264;26.940;2024-03-02T07:58:09;30.08;;;9.88;;
40871;SDS011;26591;43.264;26.940;2024-03-02T08:00:36;24.85;;;10.32;;
40871;SDS011;26591;43.264;26.940;2024-03-02T08:03:04;26.58;;;9.60;;
40871;SDS011;26591;43.264;26.940;2024-03-02T08:05:30;22.42;;;9.68;;
40871;SDS011;26591;43.264;26.940;2024-03-02T08:07:55;24.88;;;10.27;;
40871;SDS011;26591;43.264;26.940;2024-03-02T08:13:38;19.08;;;8.60;;
40871;SDS011;26591;43.264;26.940;2024-03-02T08:16:04;27.10;;;8.85;;
40871;SDS011;26591;43.264;26.940;2024-03-02T08:18:33;24.10;;;8.60;;
40871;SDS011;26591;43.264;26.940;2024-03-02T08:20:59;20.88;;;8.70;;
40871;SDS011;26591;43.264;26.940;2024-03-02T08:23:24;23.40;;;9.18;;
40871;SDS011;26591;43.264;26.940;2024-03-02T08:25:50;28.98;;;8.18;;
40871;SDS011;26591;43.264;26.940;2024-03-02T08:28:15;25.00;;;9.05;;
40871;SDS011;26591;43.264;26.940;2024-03-02T08:30:41;25.05;;;9.52;;
40871;SDS011;26591;43.264;26.940;2024-03-02T08:33:06;21.90;;;9.38;;
40871;SDS011;26591;43.264;26.940;2024-03-02T08:35:32;21.55;;;9.65;;
40871;SDS011;26591;43.264;26.940;2024-03-02T08:38:01;29.25;;;9.35;;
40871;SDS011;26591;43.264;26.940;2024-03-02T08:40:28;23.05;;;8.88;;
40871;SDS011;26591;43.264;26.940;2024-03-02T08:42:53;21.10;;;8.35;;
40871;SDS011;26591;43.264;26.940;2024-03-02T08:45:19;24.95;;;9.23;;
40871;SDS011;26591;43.264;26.940;2024-03-02T08:47:45;16.65;;;8.15;;
40871;SDS011;26591;43.264;26.940;2024-03-02T08:50:11;18.95;;;8.25;;
40871;SDS011;26591;43.264;26.940;2024-03-02T08:52:37;17.77;;;7.65;;
40871;SDS011;26591;43.264;26.940;2024-03-02T08:55:02;26.45;;;7.93;;
40871;SDS011;26591;43.264;26.940;2024-03-02T08:57:28;18.95;;;7.85;;
40871;SDS011;26591;43.264;26.940;2024-03-02T08:59:53;18.33;;;8.05;;
40871;SDS011;26591;43.264;26.940;2024-03-02T09:02:19;18.58;;;7.97;;
40871;SDS011;26591;43.264;26.940;2024-03-02T09:04:44;29.08;;;9.45;;
40871;SDS011;26591;43.264;26.940;2024-03-02T09:07:10;51.15;;;19.42;;
40871;SDS011;26591;43.264;26.940;2024-03-02T09:09:35;21.27;;;7.93;;
40871;SDS011;26591;43.264;26.940;2024-03-02T09:12:01;20.95;;;7.05;;
40871;SDS011;26591;43.264;26.940;2024-03-02T09:14:27;36.83;;;12.88;;
40871;SDS011;26591;43.264;26.940;2024-03-02T09:16:52;24.30;;;7.90;;
40871;SDS011;26591;43.264;26.940;2024-03-02T09:19:18;15.85;;;7.70;;
40871;SDS011;26591;43.264;26.940;2024-03-02T09:21:43;24.02;;;8.98;;
40871;SDS011;26591;43.264;26.940;2024-03-02T09:24:09;30.58;;;12.05;;
40871;SDS011;26591;43.264;26.940;2024-03-02T09:26:35;18.60;;;7.47;;
40871;SDS011;26591;43.264;26.940;2024-03-02T09:29:01;20.90;;;7.70;;
40871;SDS011;26591;43.264;26.940;2024-03-02T09:31:26;25.08;;;8.93;;
40871;SDS011;26591;43.264;26.940;2024-03-02T09:33:51;22.35;;;9.02;;
40871;SDS011;26591;43.264;26.940;2024-03-02T09:36:20;32.58;;;8.93;;
40871;SDS011;26591;43.264;26.940;2024-03-02T09:38:47;26.10;;;10.38;;
40871;SDS011;26591;43.264;26.940;2024-03-02T09:41:14;18.65;;;7.13;;
40871;SDS011;26591;43.264;26.940;2024-03-02T09:43:40;20.80;;;9.23;;
40871;SDS011;26591;43.264;26.940;2024-03-02T09:46:07;43.08;;;14.93;;
40871;SDS011;26591;43.264;26.940;2024-03-02T09:48:35;21.20;;;8.40;;
40871;SDS011;26591;43.264;26.940;2024-03-02T09:51:00;31.45;;;11.70;;
40871;SDS011;26591;43.264;26.940;2024-03-02T09:53:29;29.08;;;8.93;;
40871;SDS011;26591;43.264;26.940;2024-03-02T09:55:56;18.40;;;7.88;;
40871;SDS011;26591;43.264;26.940;2024-03-02T09:58:22;21.35;;;8.07;;
40871;SDS011;26591;43.264;26.940;2024-03-02T10:00:48;15.10;;;7.50;;
40871;SDS011;26591;43.264;26.940;2024-03-02T10:03:14;18.08;;;7.78;;
40871;SDS011;26591;43.264;26.940;2024-03-02T10:05:40;18.83;;;7.68;;
40871;SDS011;26591;43.264;26.940;2024-03-02T10:08:05;19.42;;;8.98;;
40871;SDS011;26591;43.264;26.940;2024-03-02T10:10:36;18.50;;;7.15;;
40871;SDS011;26591;43.264;26.940;2024-03-02T10:13:08;26.60;;;8.60;;
40871;SDS011;26591;43.264;26.940;2024-03-02T10:15:38;16.92;;;6.40;;
40871;SDS011;26591;43.264;26.940;2024-03-02T10:18:10;19.73;;;6.05;;
40871;SDS011;26591;43.264;26.940;2024-03-02T10:20:37;12.27;;;5.87;;
40871;SDS011;26591;43.264;26.940;2024-03-02T10:23:10;20.95;;;6.50;;
40871;SDS011;26591;43.264;26.940;2024-03-02T10:25:37;22.42;;;6.82;;
40871;SDS011;26591;43.264;26.940;2024-03-02T10:28:03;20.15;;;6.35;;
40871;SDS011;26591;43.264;26.940;2024-03-02T10:30:31;21.45;;;5.80;;
40871;SDS011;26591;43.264;26.940;2024-03-02T10:32:56;15.18;;;5.93;;
40871;SDS011;26591;43.264;26.940;2024-03-02T10:35:22;20.67;;;7.63;;
40871;SDS011;26591;43.264;26.940;2024-03-02T10:37:49;16.92;;;6.57;;
40871;SDS011;26591;43.264;26.940;2024-03-02T10:40:15;23.53;;;7.17;;
40871;SDS011;26591;43.264;26.940;2024-03-02T10:42:41;61.40;;;16.38;;
40871;SDS011;26591;43.264;26.940;2024-03-02T10:45:10;12.80;;;5.38;;
40871;SDS011;26591;43.264;26.940;2024-03-02T10:47:39;25.48;;;8.70;;
40871;SDS011;26591;43.264;26.940;2024-03-02T10:50:07;16.05;;;6.05;;
40871;SDS011;26591;43.264;26.940;2024-03-02T10:52:42;14.02;;;6.72;;
40871;SDS011;26591;43.264;26.940;2024-03-02T10:55:08;19.67;;;6.50;;
40871;SDS011;26591;43.264;26.940;2024-03-02T11:00:19;17.73;;;5.90;;
40871;SDS011;26591;43.264;26.940;2024-03-02T11:02:55;21.10;;;6.95;;
40871;SDS011;26591;43.264;26.940;2024-03-02T11:05:28;18.17;;;6.78;;
40871;SDS011;26591;43.264;26.940;2024-03-02T11:07:57;18.48;;;6.18;;
40871;SDS011;26591;43.264;26.940;2024-03-02T11:10:28;12.77;;;5.75;;
40871;SDS011;26591;43.264;26.940;2024-03-02T11:13:16;18.33;;;6.85;;
40871;SDS011;26591;43.264;26.940;2024-03-02T11:18:52;20.48;;;6.32;;
40871;SDS011;26591;43.264;26.940;2024-03-02T11:21:18;17.75;;;6.68;;
40871;SDS011;26591;43.264;26.940;2024-03-02T11:23:44;15.45;;;6.65;;
40871;SDS011;26591;43.264;26.940;2024-03-02T11:26:19;23.75;;;7.53;;
40871;SDS011;26591;43.264;26.940;2024-03-02T11:28:46;30.23;;;8.75;;
40871;SDS011;26591;43.264;26.940;2024-03-02T11:31:12;15.63;;;7.07;;
40871;SDS011;26591;43.264;26.940;2024-03-02T11:33:37;13.10;;;6.70;;
40871;SDS011;26591;43.264;26.940;2024-03-02T11:36:03;19.38;;;7.78;;
40871;SDS011;26591;43.264;26.940;2024-03-02T11:38:32;19.60;;;8.32;;
40871;SDS011;26591;43.264;26.940;2024-03-02T11:41:02;19.73;;;8.40;;
40871;SDS011;26591;43.264;26.940;2024-03-02T11:43:32;21.33;;;8.02;;
40871;SDS011;26591;43.264;26.940;2024-03-02T11:48:51;19.02;;;7.75;;
40871;SDS011;26591;43.264;26.940;2024-03-02T11:51:16;24.65;;;8.32;;
40871;SDS011;26591;43.264;26.940;2024-03-02T11:53:42;16.02;;;7.78;;
40871;SDS011;26591;43.264;26.940;2024-03-02T11:56:08;19.45;;;8.07;;
40871;SDS011;26591;43.264;26.940;2024-03-02T11:58:36;22.77;;;9.15;;
40871;SDS011;26591;43.264;26.940;2024-03-02T12:01:03;15.63;;;7.32;;
40871;SDS011;26591;43.264;26.940;2024-03-02T12:03:28;17.85;;;7.38;;
40871;SDS011;26591;43.264;26.940;2024-03-02T12:05:54;17.17;;;7.47;;
40871;SDS011;26591;43.264;26.940;2024-03-02T12:08:20;17.60;;;7.45;;
40871;SDS011;26591;43.264;26.940;2024-03-02T12:10:57;21.05;;;7.80;;
40871;SDS011;26591;43.264;26.940;2024-03-02T12:13:26;26.85;;;10.48;;
40871;SDS011;26591;43.264;26.940;2024-03-02T12:15:55;14.43;;;7.78;;
40871;SDS011;26591;43.264;26.940;2024-03-02T12:18:23;19.58;;;10.93;;
40871;SDS011;26591;43.264;26.940;2024-03-02T12:20:50;23.52;;;7.97;;
40871;SDS011;26591;43.264;26.940;2024-03-02T12:23:18;31.77;;;9.10;;
40871;SDS011;26591;43.264;26.940;2024-03-02T12:25:44;11.55;;;6.32;;
40871;SDS011;26591;43.264;26.940;2024-03-02T12:28:10;15.80;;;7.32;;
40871;SDS011;26591;43.264;26.940;2024-03-02T12:30:36;15.65;;;6.45;;
40871;SDS011;26591;43.264;26.940;2024-03-02T12:33:01;14.05;;;6.28;;
40871;SDS011;26591;43.264;26.940;2024-03-02T12:35:27;17.67;;;7.38;;
40871;SDS011;26591;43.264;26.940;2024-03-02T12:37:53;21.17;;;7.15;;
40871;SDS011;26591;43.264;26.940;2024-03-02T12:40:20;18.42;;;6.70;;
40871;SDS011;26591;43.264;26.940;2024-03-02T12:42:47;13.68;;;6.07;;
40871;SDS011;26591;43.264;26.940;2024-03-02T12:45:14;12.88;;;6.45;;
40871;SDS011;26591;43.264;26.940;2024-03-02T12:47:41;16.58;;;6.70;;
40871;SDS011;26591;43.264;26.940;2024-03-02T12:50:08;21.13;;;6.50;;
40871;SDS011;26591;43.264;26.940;2024-03-02T12:52:34;14.70;;;6.63;;
40871;SDS011;26591;43.264;26.940;2024-03-02T12:55:01;16.58;;;6.70;;
40871;SDS011;26591;43.264;26.940;2024-03-02T12:57:29;17.85;;;6.13;;
40871;SDS011;26591;43.264;26.940;2024-03-02T12:59:58;10.95;;;5.50;;
40871;SDS011;26591;43.264;26.940;2024-03-02T13:02:27;14.50;;;6.50;;
40871;SDS011;26591;43.264;26.940;2024-03-02T13:04:57;18.52;;;7.85;;
40871;SDS011;26591;43.264;26.940;2024-03-02T13:07:23;20.17;;;8.30;;
40871;SDS011;26591;43.264;26.940;2024-03-02T13:09:50;17.05;;;7.05;;
40871;SDS011;26591;43.264;26.940;2024-03-02T13:12:17;25.90;;;7.65;;
40871;SDS011;26591;43.264;26.940;2024-03-02T13:14:42;20.85;;;7.68;;
40871;SDS011;26591;43.264;26.940;2024-03-02T13:17:10;14.18;;;6.72;;
40871;SDS011;26591;43.264;26.940;2024-03-02T13:19:43;24.77;;;8.27;;
40871;SDS011;26591;43.264;26.940;2024-03-02T13:22:34;14.40;;;7.35;;
40871;SDS011;26591;43.264;26.940;2024-03-02T13:25:00;15.57;;;6.05;;
40871;SDS011;26591;43.264;26.940;2024-03-02T13:27:26;13.88;;;6.47;;
40871;SDS011;26591;43.264;26.940;2024-03-02T13:29:52;24.48;;;6.68;;
40871;SDS011;26591;43.264;26.940;2024-03-02T13:32:17;21.85;;;6.57;;
40871;SDS011;26591;43.264;26.940;2024-03-02T13:34:48;11.98;;;5.35;;
40871;SDS011;26591;43.264;26.940;2024-03-02T13:37:16;12.30;;;5.00;;
40871;SDS011;26591;43.264;26.940;2024-03-02T13:39:42;9.98;;;5.45;;
40871;SDS011;26591;43.264;26.940;2024-03-02T13:44:34;17.88;;;5.88;;
40871;SDS011;26591;43.264;26.940;2024-03-02T13:47:00;12.52;;;5.13;;
40871;SDS011;26591;43.264;26.940;2024-03-02T13:49:26;13.60;;;5.70;;
40871;SDS011;26591;43.264;26.940;2024-03-02T13:52:08;17.73;;;5.95;;
40871;SDS011;26591;43.264;26.940;2024-03-02T13:54:41;16.30;;;5.22;;
40871;SDS011;26591;43.264;26.940;2024-03-02T13:57:08;14.15;;;5.68;;
40871;SDS011;26591;43.264;26.940;2024-03-02T13:59:35;18.48;;;6.10;;
40871;SDS011;26591;43.264;26.940;2024-03-02T14:02:01;11.93;;;6.00;;
40871;SDS011;26591;43.264;26.940;2024-03-02T14:04:29;28.88;;;6.80;;
40871;SDS011;26591;43.264;26.940;2024-03-02T14:06:58;13.07;;;6.05;;
40871;SDS011;26591;43.264;26.940;2024-03-02T14:09:24;19.20;;;7.10;;
40871;SDS011;26591;43.264;26.940;2024-03-02T14:11:50;14.75;;;6.97;;
40871;SDS011;26591;43.264;26.940;2024-03-02T14:14:18;15.30;;;6.35;;
40871;SDS011;26591;43.264;26.940;2024-03-02T14:16:44;14.45;;;6.03;;
40871;SDS011;26591;43.264;26.940;2024-03-02T14:19:10;13.38;;;5.78;;
40871;SDS011;26591;43.264;26.940;2024-03-02T14:21:37;24.95;;;9.85;;
40871;SDS011;26591;43.264;26.940;2024-03-02T14:24:03;17.05;;;6.88;;
40871;SDS011;26591;43.264;26.940;2024-03-02T14:29:28;20.45;;;7.80;;
40871;SDS011;26591;43.264;26.940;2024-03-02T14:31:53;26.17;;;8.88;;
40871;SDS011;26591;43.264;26.940;2024-03-02T14:34:19;25.88;;;7.60;;
40871;SDS011;26591;43.264;26.940;2024-03-02T14:36:44;20.20;;;6.63;;
40871;SDS011;26591;43.264;26.940;2024-03-02T14:39:10;30.27;;;9.30;;
40871;SDS011;26591;43.264;26.940;2024-03-02T14:41:36;18.95;;;8.68;;
40871;SDS011;26591;43.264;26.940;2024-03-02T14:44:02;20.85;;;7.72;;
40871;SDS011;26591;43.264;26.940;2024-03-02T14:46:28;15.57;;;6.55;;
40871;SDS011;26591;43.264;26.940;2024-03-02T14:48:54;15.55;;;6.55;;
40871;SDS011;26591;43.264;26.940;2024-03-02T14:51:20;18.48;;;7.45;;
40871;SDS011;26591;43.264;26.940;2024-03-02T14:53:45;21.00;;;7.22;;
40871;SDS011;26591;43.264;26.940;2024-03-02T14:56:11;24.52;;;8.52;;